createdAt,value
2022-12-19T00:01:26.633Z,37.23
2022-12-19T00:03:58.420Z,35.87
2022-12-19T00:06:25.640Z,36.47
2022-12-19T00:08:53.654Z,40.57
2022-12-19T00:11:23.106Z,28.33
2022-12-19T00:13:49.905Z,38.43
2022-12-19T00:16:19.821Z,35.43
2022-12-19T00:18:48.812Z,39.77
2022-12-19T00:21:17.705Z,37.87
2022-12-19T00:23:45.614Z,53.53
2022-12-19T00:26:13.333Z,37.13
2022-12-19T00:28:40.888Z,39.10
2022-12-19T00:31:07.403Z,32.63
2022-12-19T00:33:34.343Z,29.60
2022-12-19T00:36:07.282Z,36.53
2022-12-19T00:38:34.405Z,33.00
2022-12-19T00:41:32.124Z,34.83
2022-12-19T00:44:00.898Z,25.40
2022-12-19T00:46:28.720Z,24.73
2022-12-19T00:48:55.496Z,27.33
2022-12-19T00:51:25.064Z,29.90
2022-12-19T00:53:53.807Z,35.53
2022-12-19T00:56:26.807Z,27.47
2022-12-19T00:58:54.615Z,27.17
2022-12-19T01:01:33.333Z,24.87
2022-12-19T01:06:47.259Z,26.77
2022-12-19T01:09:14.755Z,27.03
2022-12-19T01:12:00.002Z,23.40
2022-12-19T01:14:26.653Z,25.37
2022-12-19T01:16:53.046Z,27.97
2022-12-19T01:19:20.250Z,29.40
2022-12-19T01:21:46.835Z,30.97
2022-12-19T01:24:13.919Z,39.03
2022-12-19T01:26:45.832Z,33.27
2022-12-19T01:29:12.396Z,34.97
2022-12-19T01:31:39.009Z,33.50
2022-12-19T01:34:06.797Z,33.33
2022-12-19T01:36:34.687Z,32.43
2022-12-19T01:39:05.137Z,23.27
2022-12-19T01:41:31.645Z,25.07
2022-12-19T01:44:01.936Z,31.07
2022-12-19T01:46:40.213Z,33.73
2022-12-19T01:49:19.133Z,14.47
2022-12-19T01:51:51.095Z,27.83
2022-12-19T01:54:22.497Z,23.30
2022-12-19T01:56:51.973Z,29.77
2022-12-19T01:59:28.385Z,30.43
2022-12-19T02:02:00.493Z,22.20
2022-12-19T02:04:32.524Z,22.30
2022-12-19T02:07:15.321Z,19.87
2022-12-19T02:09:45.119Z,22.80
2022-12-19T02:12:11.775Z,29.67
2022-12-19T02:14:38.540Z,27.20
2022-12-19T02:17:33.004Z,26.07
2022-12-19T02:20:17.736Z,26.17
2022-12-19T02:23:16.548Z,30.63
2022-12-19T02:25:56.843Z,20.53
2022-12-19T02:28:46.211Z,31.23
2022-12-19T02:31:21.803Z,18.63
2022-12-19T02:34:23.785Z,28.50
2022-12-19T02:36:57.435Z,20.33
2022-12-19T02:39:39.392Z,22.47
2022-12-19T02:42:09.826Z,30.00
2022-12-19T02:44:45.165Z,27.50
2022-12-19T02:47:13.494Z,23.60
2022-12-19T02:49:40.266Z,33.60
2022-12-19T02:52:32.922Z,23.70
2022-12-19T02:55:13.548Z,15.70
2022-12-19T02:58:10.788Z,23.93
2022-12-19T03:00:49.054Z,22.37
2022-12-19T03:03:37.689Z,22.33
2022-12-19T03:06:14.075Z,24.80
2022-12-19T03:08:53.907Z,22.07
2022-12-19T03:11:22.784Z,23.03
2022-12-19T03:14:00.465Z,21.63
2022-12-19T03:16:27.404Z,22.47
2022-12-19T03:18:54.478Z,16.63
2022-12-19T03:21:27.366Z,20.77
2022-12-19T03:23:55.596Z,14.60
2022-12-19T03:26:26.584Z,18.93
2022-12-19T03:29:01.738Z,17.90
2022-12-19T03:31:32.437Z,15.73
2022-12-19T03:34:08.680Z,10.43
2022-12-19T03:36:41.437Z,14.77
2022-12-19T03:39:11.106Z,13.80
2022-12-19T03:41:58.214Z,15.90
2022-12-19T03:44:28.520Z,10.97
2022-12-19T03:47:00.137Z,10.33
2022-12-19T03:49:26.912Z,14.73
2022-12-19T03:52:03.256Z,10.23
2022-12-19T03:55:10.244Z,11.87
2022-12-19T03:57:47.706Z,14.23
2022-12-19T04:00:17.646Z,10.27
2022-12-19T04:02:50.329Z,11.57
2022-12-19T04:05:26.093Z,7.17
2022-12-19T04:07:57.005Z,11.70
2022-12-19T04:10:26.494Z,9.33
2022-12-19T04:13:19.375Z,15.33
2022-12-19T04:16:27.586Z,13.37
2022-12-19T04:19:03.182Z,9.60
2022-12-19T04:21:40.364Z,9.53
2022-12-19T04:24:13.120Z,9.60
2022-12-19T04:26:48.622Z,11.70
2022-12-19T04:29:15.951Z,10.90
2022-12-19T04:31:43.657Z,8.03
2022-12-19T04:34:10.347Z,12.20
2022-12-19T04:36:36.878Z,8.00
2022-12-19T04:39:03.976Z,10.87
2022-12-19T04:41:30.388Z,11.03
2022-12-19T04:43:56.781Z,9.37
2022-12-19T04:46:23.375Z,12.00
2022-12-19T04:48:49.902Z,10.63
2022-12-19T04:51:16.420Z,5.13
2022-12-19T04:53:42.882Z,9.60
2022-12-19T04:56:09.616Z,9.57
2022-12-19T04:58:36.248Z,7.80
2022-12-19T05:01:07.694Z,10.13
2022-12-19T05:03:34.990Z,4.50
2022-12-19T05:06:10.397Z,9.13
2022-12-19T05:08:38.714Z,7.43
2022-12-19T05:11:05.873Z,7.00
2022-12-19T05:13:32.782Z,5.80
2022-12-19T05:16:01.446Z,8.07
2022-12-19T05:18:28.767Z,7.47
2022-12-19T05:20:55.991Z,7.23
2022-12-19T05:23:23.074Z,9.87
2022-12-19T05:25:50.035Z,7.67
2022-12-19T05:28:17.135Z,8.60
2022-12-19T05:30:47.754Z,8.27
2022-12-19T05:33:17.159Z,6.47
2022-12-19T05:35:43.862Z,11.20
2022-12-19T05:38:10.457Z,11.73
2022-12-19T05:40:36.915Z,7.53
2022-12-19T05:43:03.823Z,11.20
2022-12-19T05:45:30.315Z,9.17
2022-12-19T05:48:01.195Z,10.47
2022-12-19T05:50:28.227Z,10.27
2022-12-19T05:52:54.613Z,5.50
2022-12-19T05:55:21.053Z,5.90
2022-12-19T05:57:47.646Z,12.10
2022-12-19T06:00:15.179Z,9.23
2022-12-19T06:02:42.312Z,11.63
2022-12-19T06:05:09.168Z,7.23
2022-12-19T06:07:35.668Z,9.43
2022-12-19T06:10:02.228Z,9.17
2022-12-19T06:12:28.616Z,12.10
2022-12-19T06:14:56.129Z,11.83
2022-12-19T06:17:22.994Z,8.47
2022-12-19T06:19:49.409Z,9.40
2022-12-19T06:22:16.917Z,10.43
2022-12-19T06:24:43.286Z,12.27
2022-12-19T06:27:09.934Z,11.20
2022-12-19T06:29:36.407Z,10.43
2022-12-19T06:32:02.884Z,12.43
2022-12-19T06:35:02.349Z,10.80
2022-12-19T06:37:15.724Z,11.17
2022-12-19T06:39:42.157Z,8.73
2022-12-19T06:42:24.949Z,9.30
2022-12-19T06:44:54.188Z,10.13
2022-12-19T06:47:22.191Z,7.93
2022-12-19T06:49:49.049Z,8.47
2022-12-19T06:52:16.353Z,11.97
2022-12-19T06:54:42.779Z,11.37
2022-12-19T06:57:09.172Z,9.77
2022-12-19T06:59:35.608Z,10.27
2022-12-19T07:02:27.768Z,6.37
2022-12-19T07:05:04.299Z,10.83
2022-12-19T07:07:30.875Z,10.93
2022-12-19T07:09:57.502Z,12.23
2022-12-19T07:12:23.880Z,14.13
2022-12-19T07:14:53.725Z,11.90
2022-12-19T07:17:22.194Z,12.47
2022-12-19T07:19:48.663Z,12.10
2022-12-19T07:22:15.198Z,13.60
2022-12-19T07:24:41.723Z,13.60
2022-12-19T07:27:08.234Z,8.13
2022-12-19T07:29:34.654Z,7.10
2022-12-19T07:32:01.090Z,13.80
2022-12-19T07:34:27.567Z,9.47
2022-12-19T07:36:54.082Z,8.60
2022-12-19T07:39:21.809Z,14.47
2022-12-19T07:41:48.346Z,12.17
2022-12-19T07:44:16.480Z,8.33
2022-12-19T07:46:43.394Z,8.60
2022-12-19T07:49:09.904Z,8.23
2022-12-19T07:51:36.390Z,11.20
2022-12-19T07:54:05.988Z,10.97
2022-12-19T07:56:32.535Z,14.90
2022-12-19T07:58:59.083Z,13.13
2022-12-19T08:01:28.289Z,11.40
2022-12-19T08:03:55.959Z,14.03
2022-12-19T08:06:23.408Z,8.23
2022-12-19T08:08:50.226Z,8.47
2022-12-19T08:11:19.701Z,12.63
2022-12-19T08:13:46.964Z,6.77
2022-12-19T08:16:14.056Z,8.87
2022-12-19T08:18:40.705Z,12.63
2022-12-19T08:21:08.360Z,6.57
2022-12-19T08:23:35.099Z,10.97
2022-12-19T08:26:07.175Z,7.77
2022-12-19T08:28:35.743Z,8.77
2022-12-19T08:31:17.380Z,12.10
2022-12-19T08:33:44.919Z,13.57
2022-12-19T08:36:14.273Z,8.70
2022-12-19T08:38:41.152Z,8.33
2022-12-19T08:41:08.361Z,13.10
2022-12-19T08:43:35.097Z,8.53
2022-12-19T08:46:01.767Z,9.33
2022-12-19T08:48:28.369Z,10.90
2022-12-19T08:50:56.802Z,6.30
2022-12-19T08:53:26.646Z,9.83
2022-12-19T08:56:01.645Z,12.07
2022-12-19T08:58:30.261Z,12.37
2022-12-19T09:01:06.301Z,9.97
2022-12-19T09:03:38.105Z,8.27
2022-12-19T09:06:19.921Z,9.50
2022-12-19T09:08:46.928Z,9.03
2022-12-19T09:11:16.482Z,10.10
2022-12-19T09:13:45.002Z,8.47
2022-12-19T09:16:15.583Z,6.07
2022-12-19T09:18:48.406Z,9.57
2022-12-19T09:21:16.154Z,8.50
2022-12-19T09:23:42.896Z,11.97
2022-12-19T09:26:12.981Z,8.63
2022-12-19T09:28:40.847Z,8.43
2022-12-19T09:31:11.908Z,6.80
2022-12-19T09:33:43.316Z,6.37
2022-12-19T09:36:15.582Z,11.07
2022-12-19T09:38:42.302Z,7.93
2022-12-19T09:41:30.559Z,7.17
2022-12-19T09:44:36.170Z,9.63
2022-12-19T09:47:14.539Z,7.60
2022-12-19T09:49:44.689Z,8.17
2022-12-19T09:52:32.987Z,7.77
2022-12-19T09:55:28.141Z,6.63
2022-12-19T09:58:08.081Z,9.33
2022-12-19T10:00:40.361Z,10.90
2022-12-19T10:03:32.266Z,8.57
2022-12-19T10:07:14.004Z,8.80
2022-12-19T10:10:29.192Z,4.77
2022-12-19T10:12:50.814Z,9.97
2022-12-19T10:15:47.183Z,8.63
2022-12-19T10:18:51.156Z,6.07
2022-12-19T10:21:43.191Z,7.03
2022-12-19T10:25:08.192Z,8.27
2022-12-19T10:27:58.502Z,9.10
2022-12-19T10:30:25.720Z,10.50
2022-12-19T10:32:59.769Z,8.33
2022-12-19T10:35:33.057Z,7.90
2022-12-19T10:38:11.725Z,5.70
2022-12-19T10:40:51.957Z,6.60
2022-12-19T10:43:40.818Z,7.43
2022-12-19T10:46:41.241Z,7.27
2022-12-19T10:49:17.067Z,7.27
2022-12-19T10:51:55.536Z,8.63
2022-12-19T10:54:46.217Z,10.00
2022-12-19T10:57:27.603Z,6.17
2022-12-19T11:00:13.477Z,8.57
2022-12-19T11:02:44.720Z,9.17
2022-12-19T11:05:38.946Z,4.87
2022-12-19T11:08:08.298Z,5.27
2022-12-19T11:12:02.672Z,7.30
2022-12-19T11:18:53.577Z,9.87
2022-12-19T11:22:19.177Z,6.57
2022-12-19T11:29:27.069Z,5.83
2022-12-19T11:30:05.168Z,9.43
2022-12-19T11:30:43.541Z,8.80
2022-12-19T11:30:45.892Z,7.73
2022-12-19T11:32:32.010Z,7.57
2022-12-19T11:34:19.331Z,12.33
2022-12-19T11:37:16.981Z,7.57
2022-12-19T11:39:52.833Z,11.00
2022-12-19T11:42:37.445Z,6.43
2022-12-19T11:45:26.908Z,6.33
2022-12-19T11:48:01.992Z,7.77
2022-12-19T11:50:32.764Z,5.87
2022-12-19T11:53:18.434Z,6.53
2022-12-19T11:55:51.466Z,5.40
2022-12-19T11:58:17.932Z,5.00
2022-12-19T12:01:02.035Z,4.97
2022-12-19T12:04:01.855Z,3.63
2022-12-19T12:06:34.025Z,4.97
2022-12-19T12:12:00.409Z,5.07
2022-12-19T12:20:03.901Z,9.40
2022-12-19T12:27:07.096Z,6.67
2022-12-19T12:31:13.483Z,6.47
2022-12-19T12:31:40.357Z,7.07
2022-12-19T12:31:41.610Z,6.63
2022-12-19T12:31:42.627Z,5.23
2022-12-19T12:32:05.785Z,8.70
2022-12-19T12:35:48.803Z,7.47
2022-12-19T12:39:35.367Z,4.33
2022-12-19T12:42:20.545Z,5.67
2022-12-19T12:44:50.690Z,5.63
2022-12-19T12:47:20.538Z,6.77
2022-12-19T12:50:03.458Z,5.80
2022-12-19T12:52:35.130Z,5.73
2022-12-19T12:55:04.687Z,7.50
2022-12-19T12:57:37.064Z,8.03
2022-12-19T13:00:23.633Z,7.90
2022-12-19T13:03:12.923Z,6.80
2022-12-19T13:06:04.698Z,7.50
2022-12-19T13:08:34.437Z,7.37
2022-12-19T13:11:03.870Z,10.20
2022-12-19T13:13:51.736Z,10.17
2022-12-19T13:16:43.219Z,10.43
2022-12-19T13:19:34.907Z,5.53
2022-12-19T13:22:04.381Z,9.90
2022-12-19T13:25:00.331Z,10.70
2022-12-19T13:27:26.863Z,7.87
2022-12-19T13:30:07.926Z,7.97
2022-12-19T13:32:40.195Z,8.47
2022-12-19T13:36:35.661Z,6.43
2022-12-19T13:39:56.520Z,7.43
2022-12-19T13:41:23.246Z,6.77
2022-12-19T13:43:50.002Z,10.17
2022-12-19T13:46:31.085Z,5.90
2022-12-19T13:49:06.989Z,6.13
2022-12-19T13:51:48.692Z,10.03
2022-12-19T13:54:23.242Z,9.20
2022-12-19T13:56:51.771Z,9.40
2022-12-19T13:59:21.290Z,5.60
2022-12-19T14:01:48.683Z,6.43
2022-12-19T14:04:35.445Z,7.73
2022-12-19T14:07:21.739Z,6.63
2022-12-19T14:11:35.338Z,4.57
2022-12-19T14:13:43.628Z,7.17
2022-12-19T14:15:52.387Z,6.13
2022-12-19T14:18:44.915Z,6.87
2022-12-19T14:22:05.376Z,10.33
2022-12-19T14:24:22.433Z,5.80
2022-12-19T14:28:16.911Z,7.23
2022-12-19T14:30:30.702Z,7.80
2022-12-19T14:33:39.356Z,8.30
2022-12-19T14:36:06.159Z,8.77
2022-12-19T14:39:26.450Z,5.43
2022-12-19T14:41:46.270Z,6.50
2022-12-19T14:54:01.530Z,7.40
2022-12-19T14:54:02.261Z,6.30
2022-12-19T14:54:10.025Z,5.67
2022-12-19T14:54:40.347Z,6.97
2022-12-19T14:56:13.488Z,9.43
2022-12-19T14:58:52.098Z,6.87
2022-12-19T15:01:33.075Z,6.80
2022-12-19T15:04:53.009Z,13.47
2022-12-19T15:07:11.256Z,9.57
2022-12-19T15:11:07.400Z,6.13
2022-12-19T15:14:49.151Z,6.07
2022-12-19T15:15:58.957Z,6.47
2022-12-19T15:18:39.286Z,7.80
2022-12-19T15:21:14.597Z,5.47
2022-12-19T15:23:43.621Z,9.17
2022-12-19T15:26:15.740Z,7.23
2022-12-19T15:28:51.397Z,5.87
2022-12-19T15:31:33.003Z,4.93
2022-12-19T15:34:33.030Z,5.43
2022-12-19T15:36:45.918Z,6.03
2022-12-19T15:39:12.365Z,6.37
2022-12-19T15:41:38.806Z,4.00
2022-12-19T15:44:14.169Z,8.03
2022-12-19T15:46:48.090Z,3.17
2022-12-19T15:49:17.022Z,7.30
2022-12-19T15:51:44.119Z,4.97
2022-12-19T15:54:46.492Z,6.07
2022-12-19T15:56:57.284Z,10.90
2022-12-19T15:59:49.919Z,6.27
2022-12-19T16:02:19.164Z,5.47
2022-12-19T16:04:47.716Z,5.37
2022-12-19T16:07:19.457Z,5.77
2022-12-19T16:09:46.358Z,6.10
2022-12-19T16:12:24.396Z,9.13
2022-12-19T16:14:56.858Z,8.20
2022-12-19T16:17:25.184Z,5.23
2022-12-19T16:19:52.806Z,8.53
2022-12-19T16:22:25.166Z,7.20
2022-12-19T16:24:54.045Z,6.50
2022-12-19T16:27:27.409Z,5.27
2022-12-19T16:29:55.358Z,7.33
2022-12-19T16:32:24.174Z,6.97
2022-12-19T16:34:52.851Z,8.80
2022-12-19T16:37:19.338Z,5.53
2022-12-19T16:39:45.887Z,8.27
2022-12-19T16:42:15.310Z,6.30
2022-12-19T16:44:45.415Z,7.60
2022-12-19T16:47:17.721Z,7.20
2022-12-19T16:49:45.336Z,5.83
2022-12-19T16:52:12.268Z,5.70
2022-12-19T16:54:38.736Z,6.07
2022-12-19T16:57:14.837Z,10.30
2022-12-19T16:59:41.878Z,5.67
2022-12-19T17:02:44.557Z,9.13
2022-12-19T17:05:35.425Z,5.40
2022-12-19T17:08:02.139Z,7.23
2022-12-19T17:10:33.628Z,6.03
2022-12-19T17:13:03.198Z,6.60
2022-12-19T17:15:33.767Z,6.67
2022-12-19T17:18:02.672Z,6.67
2022-12-19T17:20:35.545Z,7.80
2022-12-19T17:23:01.932Z,5.50
2022-12-19T17:25:28.802Z,7.90
2022-12-19T17:27:56.025Z,8.40
2022-12-19T17:30:22.654Z,5.30
2022-12-19T17:32:50.974Z,6.57
2022-12-19T17:35:27.321Z,8.20
2022-12-19T17:37:57.236Z,3.47
2022-12-19T17:40:30.483Z,5.17
2022-12-19T17:42:57.599Z,3.47
2022-12-19T17:45:25.800Z,5.83
2022-12-19T17:48:00.396Z,10.30
2022-12-19T17:50:34.550Z,10.37
2022-12-19T17:53:01.304Z,7.73
2022-12-19T17:55:29.642Z,5.00
2022-12-19T17:57:57.059Z,8.23
2022-12-19T18:00:30.310Z,6.93
2022-12-19T18:03:05.175Z,6.53
2022-12-19T18:05:36.414Z,6.87
2022-12-19T18:08:03.580Z,8.63
2022-12-19T18:10:31.550Z,10.57
2022-12-19T18:12:58.307Z,5.27
2022-12-19T18:15:25.400Z,8.23
2022-12-19T18:17:53.428Z,7.10
2022-12-19T18:20:31.989Z,6.97
2022-12-19T18:23:00.390Z,6.57
2022-12-19T18:25:31.003Z,6.70
2022-12-19T18:27:58.410Z,6.53
2022-12-19T18:30:26.025Z,6.17
2022-12-19T18:33:01.424Z,5.93
2022-12-19T18:35:36.857Z,5.50
2022-12-19T18:38:12.405Z,5.93
2022-12-19T18:40:39.203Z,8.70
2022-12-19T18:43:06.307Z,6.63
2022-12-19T18:45:38.894Z,11.67
2022-12-19T18:48:14.465Z,9.73
2022-12-19T18:50:41.866Z,5.37
2022-12-19T18:53:14.223Z,8.63
2022-12-19T18:55:40.779Z,6.67
2022-12-19T18:58:07.345Z,8.43
2022-12-19T19:00:35.578Z,7.00
2022-12-19T19:03:05.260Z,8.03
2022-12-19T19:05:34.453Z,8.37
2022-12-19T19:08:12.729Z,7.07
2022-12-19T19:10:39.239Z,6.57
2022-12-19T19:13:10.146Z,6.87
2022-12-19T19:15:42.730Z,8.33
2022-12-19T19:18:09.346Z,8.03
2022-12-19T19:20:38.815Z,6.40
2022-12-19T19:23:11.483Z,7.83
2022-12-19T19:25:38.025Z,6.50
2022-12-19T19:28:05.450Z,10.17
2022-12-19T19:30:34.563Z,12.40
2022-12-19T19:33:10.431Z,7.93
2022-12-19T19:35:38.708Z,6.10
2022-12-19T19:38:08.719Z,6.97
2022-12-19T19:40:36.837Z,6.37
2022-12-19T19:43:04.179Z,9.90
2022-12-19T19:45:30.902Z,5.97
2022-12-19T19:47:57.468Z,4.90
2022-12-19T19:50:24.704Z,5.93
2022-12-19T19:52:51.251Z,8.43
2022-12-19T19:55:17.791Z,7.03
2022-12-19T19:57:45.259Z,3.93
2022-12-19T20:00:12.330Z,7.07
2022-12-19T20:02:39.116Z,5.10
2022-12-19T20:05:06.228Z,5.80
2022-12-19T20:07:32.839Z,6.37
2022-12-19T20:09:59.264Z,7.87
2022-12-19T20:12:25.734Z,6.70
2022-12-19T20:14:52.499Z,5.93
2022-12-19T20:17:19.044Z,4.93
2022-12-19T20:19:45.582Z,5.93
2022-12-19T20:22:12.001Z,11.00
2022-12-19T20:24:38.525Z,5.20
2022-12-19T20:27:04.971Z,7.33
2022-12-19T20:29:31.507Z,7.13
2022-12-19T20:31:57.979Z,6.30
2022-12-19T20:34:25.772Z,8.40
2022-12-19T20:36:52.341Z,6.63
2022-12-19T20:39:22.152Z,7.33
2022-12-19T20:41:52.914Z,7.73
2022-12-19T20:44:24.149Z,7.13
2022-12-19T20:46:51.624Z,5.50
2022-12-19T20:49:18.737Z,7.40
2022-12-19T20:51:47.652Z,5.47
2022-12-19T20:54:15.749Z,6.00
2022-12-19T20:56:42.646Z,6.33
2022-12-19T20:59:09.886Z,8.73
2022-12-19T21:01:36.445Z,8.07
2022-12-19T21:04:03.547Z,6.40
2022-12-19T21:06:30.463Z,7.27
2022-12-19T21:08:57.337Z,9.20
2022-12-19T21:11:26.154Z,6.03
2022-12-19T21:13:52.737Z,8.80
2022-12-19T21:16:22.081Z,4.90
2022-12-19T21:18:49.955Z,8.57
2022-12-19T21:21:25.662Z,5.97
2022-12-19T21:23:53.916Z,6.97
2022-12-19T21:26:22.715Z,7.77
2022-12-19T21:28:50.750Z,7.67
2022-12-19T21:31:29.287Z,7.37
2022-12-19T21:33:58.383Z,10.30
2022-12-19T21:36:26.195Z,11.73
2022-12-19T21:38:55.825Z,10.43
2022-12-19T21:41:22.586Z,5.90
2022-12-19T21:43:53.477Z,6.70
2022-12-19T21:46:22.352Z,6.27
2022-12-19T21:48:50.813Z,7.73
2022-12-19T21:51:19.825Z,7.30
2022-12-19T21:53:46.766Z,4.97
2022-12-19T21:56:25.644Z,7.67
2022-12-19T21:58:54.175Z,6.07
2022-12-19T22:01:21.026Z,8.57
2022-12-19T22:03:47.770Z,7.97
2022-12-19T22:06:27.762Z,7.13
2022-12-19T22:08:55.233Z,7.73
2022-12-19T22:11:22.028Z,6.77
2022-12-19T22:13:49.797Z,5.50
2022-12-19T22:16:17.183Z,8.40
2022-12-19T22:18:44.689Z,7.40
2022-12-19T22:21:13.356Z,10.07
2022-12-19T22:23:40.385Z,6.13
2022-12-19T22:26:17.188Z,7.47
2022-12-19T22:28:46.312Z,7.90
2022-12-19T22:31:21.865Z,7.90
2022-12-19T22:33:50.232Z,11.50
2022-12-19T22:36:23.952Z,4.33
2022-12-19T22:38:54.195Z,7.20
2022-12-19T22:41:21.265Z,4.97
2022-12-19T22:43:47.845Z,7.20
2022-12-19T22:46:19.521Z,6.00
2022-12-19T22:48:47.113Z,5.97
2022-12-19T22:51:14.930Z,9.90
2022-12-19T22:53:42.275Z,8.27
2022-12-19T22:56:13.220Z,4.87
2022-12-19T22:58:41.833Z,5.40
2022-12-19T23:01:26.616Z,5.67
2022-12-19T23:03:55.586Z,8.40
2022-12-19T23:06:23.635Z,7.33
2022-12-19T23:08:50.059Z,6.03
2022-12-19T23:11:20.032Z,4.83
2022-12-19T23:13:47.362Z,6.67
2022-12-19T23:16:13.946Z,7.63
2022-12-19T23:18:41.115Z,7.97
2022-12-19T23:21:19.239Z,5.43
2022-12-19T23:23:47.488Z,9.50
2022-12-19T23:26:23.099Z,5.90
2022-12-19T23:28:54.931Z,7.83
2022-12-19T23:31:22.161Z,6.73
2022-12-19T23:33:49.184Z,6.30
2022-12-19T23:36:15.848Z,5.47
2022-12-19T23:38:43.413Z,5.23
2022-12-19T23:41:12.927Z,6.07
2022-12-19T23:43:40.243Z,6.30
2022-12-19T23:46:08.329Z,5.83
2022-12-19T23:48:34.845Z,6.33
2022-12-19T23:51:04.099Z,4.53
2022-12-19T23:53:31.396Z,6.43
2022-12-19T23:55:58.639Z,4.87
2022-12-19T23:58:25.232Z,7.83
